Time;durP1;ratioP1;P1;durP2;ratioP2;P2;SDS_P1;SDS_P2;PMS_P1;PMS_P2;Temp;Humidity;BMP_temperature;BMP_pressure;BME280_temperature;BME280_humidity;BME280_pressure;Samples;Min_cycle;Max_cycle;Signal;HPM_P1;HPM_P2
2023/04/11 00:01:25;;;;;;;46.75;27.85;;;256.50;2252.80;;;;;;5030344;28;20112;-61
2023/04/11 00:03:51;;;;;;;65.50;39.35;;;256.50;2252.80;;;;;;5029965;28;20048;-62
2023/04/11 00:06:17;;;;;;;31.13;22.50;;;256.50;2252.80;;;;;;5029905;28;20483;-62
2023/04/11 00:08:43;;;;;;;32.47;24.08;;;256.50;2252.80;;;;;;5039449;28;20044;-62
2023/04/11 00:11:09;;;;;;;53.35;34.08;;;256.60;2252.80;;;;;;5032955;28;20022;-62
2023/04/11 00:13:36;;;;;;;46.03;28.77;;;256.60;2252.80;;;;;;5030325;28;20025;-63
2023/04/11 00:16:02;;;;;;;60.47;39.95;;;256.60;2252.80;;;;;;5029677;28;20018;-62
2023/04/11 00:18:28;;;;;;;73.53;45.53;;;256.60;2252.80;;;;;;5029740;28;20079;-62
2023/04/11 00:20:53;;;;;;;38.65;25.58;;;256.70;2252.80;;;;;;5037261;28;20052;-61
2023/04/11 00:23:19;;;;;;;37.60;27.20;;;256.60;2252.80;;;;;;5031465;28;20026;-63
2023/04/11 00:25:45;;;;;;;29.35;19.48;;;256.70;2252.80;;;;;;5029813;28;20053;-63
2023/04/11 00:28:11;;;;;;;24.80;18.70;;;256.60;2252.80;;;;;;5029080;28;20037;-63
2023/04/11 00:30:37;;;;;;;29.05;18.40;;;256.70;2252.80;;;;;;5029726;28;20034;-62
2023/04/11 00:33:03;;;;;;;30.73;20.02;;;256.70;2252.80;;;;;;5030614;28;20048;-62
2023/04/11 00:35:33;;;;;;;29.92;21.25;;;256.70;2252.80;;;;;;5040520;28;20475;-63
2023/04/11 00:38:00;;;;;;;31.70;22.35;;;256.80;2252.80;;;;;;5042445;28;20033;-61
2023/04/11 00:40:26;;;;;;;28.45;21.80;;;256.60;2252.80;;;;;;5049211;28;20424;-60
2023/04/11 00:42:53;;;;;;;29.38;21.58;;;256.60;2252.80;;;;;;5049252;28;20021;-61
2023/04/11 00:45:19;;;;;;;32.63;22.65;;;256.60;2252.80;;;;;;5048963;28;20021;-62
2023/04/11 00:47:45;;;;;;;33.17;23.83;;;256.60;2252.80;;;;;;5049850;28;20036;-60
2023/04/11 00:50:12;;;;;;;38.03;26.13;;;256.60;2252.80;;;;;;5045595;28;20040;-61
2023/04/11 00:52:39;;;;;;;33.00;23.75;;;256.60;2252.80;;;;;;5029435;28;20035;-62
2023/04/11 00:55:06;;;;;;;32.40;23.48;;;256.60;2252.80;;;;;;5032542;28;20025;-61
2023/04/11 00:57:32;;;;;;;35.20;22.10;;;256.50;2252.80;;;;;;5049222;28;20021;-61
2023/04/11 01:00:00;;;;;;;34.28;23.15;;;256.50;2252.80;;;;;;5049167;28;20048;-62
2023/04/11 01:02:26;;;;;;;43.88;28.17;;;256.50;2252.80;;;;;;5049252;28;20056;-60
2023/04/11 01:04:52;;;;;;;40.35;25.55;;;256.60;2252.80;;;;;;5048940;28;20459;-62
2023/04/11 01:07:19;;;;;;;33.33;23.30;;;256.60;2252.80;;;;;;5035830;28;20065;-61
2023/04/11 01:09:45;;;;;;;46.85;29.60;;;256.60;2252.80;;;;;;5047262;28;20021;-61
2023/04/11 01:12:14;;;;;;;38.70;26.70;;;256.60;2252.80;;;;;;5037291;28;20028;-62
2023/04/11 01:14:40;;;;;;;134.93;71.80;;;256.60;2252.80;;;;;;5048304;28;20090;-61
2023/04/11 01:17:06;;;;;;;167.10;82.03;;;256.60;2252.80;;;;;;5049134;28;20124;-62
2023/04/11 01:19:33;;;;;;;84.07;47.28;;;256.60;2252.80;;;;;;5048973;28;20446;-61
2023/04/11 01:22:00;;;;;;;46.35;30.70;;;256.50;2252.80;;;;;;5048949;28;20057;-62
2023/04/11 01:24:26;;;;;;;100.63;52.22;;;256.50;2252.80;;;;;;5049016;28;20580;-63
2023/04/11 01:26:53;;;;;;;32.45;23.40;;;256.50;2252.80;;;;;;5048797;28;20068;-63
2023/04/11 01:29:18;;;;;;;60.05;33.78;;;256.60;2252.80;;;;;;5048530;28;20056;-62
2023/04/11 01:31:45;;;;;;;31.55;23.27;;;256.60;2252.80;;;;;;5048833;28;20055;-63
2023/04/11 01:34:13;;;;;;;44.80;28.02;;;256.40;2252.80;;;;;;5048634;28;20025;-62
2023/04/11 01:36:39;;;;;;;81.50;44.17;;;256.20;2252.80;;;;;;5048916;28;20366;-63
2023/04/11 01:39:05;;;;;;;32.97;24.40;;;256.30;2252.80;;;;;;5048971;28;20094;-62
2023/04/11 01:41:33;;;;;;;82.32;47.75;;;256.10;2252.80;;;;;;5052734;28;20120;-61
2023/04/11 01:44:00;;;;;;;103.00;60.28;;;256.10;2252.80;;;;;;5052190;28;20021;-63
2023/04/11 01:46:26;;;;;;;89.03;50.67;;;256.20;2252.80;;;;;;5052541;28;20422;-62
2023/04/11 01:48:54;;;;;;;64.18;39.30;;;256.20;2252.80;;;;;;5052584;28;20024;-61
2023/04/11 01:51:20;;;;;;;77.38;46.40;;;256.10;2252.80;;;;;;5052186;28;20056;-61
2023/04/11 01:53:46;;;;;;;75.38;42.33;;;256.10;2252.80;;;;;;5052087;28;20459;-61
2023/04/11 01:56:13;;;;;;;83.05;44.70;;;256.00;2252.80;;;;;;5052595;28;20032;-62
2023/04/11 01:58:39;;;;;;;88.40;48.58;;;231.30;2252.80;;;;;;5052335;28;20025;-62
2023/04/11 02:01:05;;;;;;;46.30;29.85;;;256.00;2252.80;;;;;;5052512;28;20090;-61
2023/04/11 02:03:31;;;;;;;64.38;36.65;;;256.00;2252.80;;;;;;5051777;28;20032;-62
2023/04/11 02:05:56;;;;;;;92.10;47.22;;;256.00;2252.80;;;;;;5052307;28;20036;-61
2023/04/11 02:08:22;;;;;;;116.60;60.92;;;256.10;2252.80;;;;;;5052259;28;20079;-61
2023/04/11 02:10:48;;;;;;;48.63;28.75;;;256.10;2252.80;;;;;;5052211;28;20497;-62
2023/04/11 02:13:14;;;;;;;132.90;63.80;;;256.00;2252.80;;;;;;5051888;28;20094;-62
2023/04/11 02:15:39;;;;;;;111.88;54.70;;;256.10;2252.80;;;;;;5052022;28;20147;-62
2023/04/11 02:18:08;;;;;;;31.63;21.30;;;256.10;2252.80;;;;;;5052050;28;20025;-61
2023/04/11 02:20:36;;;;;;;259.55;115.38;;;256.00;2252.80;;;;;;5052281;28;20455;-62
2023/04/11 02:23:03;;;;;;;82.72;36.90;;;256.00;2252.80;;;;;;5051859;28;20017;-63
2023/04/11 02:25:29;;;;;;;329.83;131.02;;;256.00;2252.80;;;;;;5052185;28;20021;-63
2023/04/11 02:27:55;;;;;;;147.18;62.28;;;256.00;2252.80;;;;;;5025336;28;20479;-63
2023/04/11 02:30:21;;;;;;;32.33;20.83;;;256.00;2252.80;;;;;;5051564;28;20040;-63
2023/04/11 02:32:48;;;;;;;42.17;24.67;;;256.10;2252.80;;;;;;5051403;28;20047;-63
2023/04/11 02:35:15;;;;;;;27.65;18.83;;;256.10;2252.80;;;;;;5051908;28;20379;-63
2023/04/11 02:37:41;;;;;;;126.47;60.13;;;256.00;2252.80;;;;;;5051729;28;20025;-63
2023/04/11 02:40:08;;;;;;;76.80;44.17;;;256.10;2252.80;;;;;;5051375;28;20553;-63
2023/04/11 02:42:34;;;;;;;340.60;174.07;;;256.10;2252.80;;;;;;5051631;28;20155;-62
2023/04/11 02:45:00;;;;;;;34.30;22.23;;;256.10;2252.80;;;;;;5051248;28;20036;-63
2023/04/11 02:47:26;;;;;;;60.00;32.90;;;256.00;2252.80;;;;;;5051656;28;20068;-62
2023/04/11 02:49:52;;;;;;;46.63;29.40;;;256.00;2252.80;;;;;;5051558;28;20068;-63
2023/04/11 02:52:18;;;;;;;30.08;21.17;;;256.00;2252.80;;;;;;5050303;28;20174;-63
2023/04/11 02:54:45;;;;;;;45.97;28.23;;;256.10;2252.80;;;;;;5051342;28;20021;-62
2023/04/11 02:57:11;;;;;;;32.95;21.02;;;256.00;2252.80;;;;;;5051032;28;20025;-61
2023/04/11 02:59:37;;;;;;;28.48;22.00;;;256.10;2252.80;;;;;;5050947;28;20047;-63
2023/04/11 03:02:03;;;;;;;23.80;17.65;;;256.10;2252.80;;;;;;5025059;28;20445;-62
2023/04/11 03:04:29;;;;;;;36.58;25.10;;;256.10;2252.80;;;;;;5050854;28;20021;-63
2023/04/11 03:06:55;;;;;;;28.92;18.67;;;256.10;2252.80;;;;;;5051321;28;20040;-61
2023/04/11 03:09:24;;;;;;;26.75;18.58;;;256.20;2252.80;;;;;;5050755;28;20079;-63
2023/04/11 03:11:50;;;;;;;54.53;34.67;;;256.10;2252.80;;;;;;5051033;28;20032;-62
2023/04/11 03:14:16;;;;;;;27.30;21.15;;;256.10;2252.80;;;;;;5050808;28;20021;-62
2023/04/11 03:16:41;;;;;;;38.35;24.65;;;256.30;2252.80;;;;;;5050815;28;20025;-62
2023/04/11 03:19:07;;;;;;;50.67;31.70;;;256.20;2252.80;;;;;;5051056;28;20037;-63
2023/04/11 03:21:33;;;;;;;33.20;20.88;;;256.20;2252.80;;;;;;5051308;28;20470;-63
2023/04/11 03:23:58;;;;;;;56.25;34.65;;;256.20;2252.80;;;;;;5050672;28;20021;-62
2023/04/11 03:26:27;;;;;;;32.03;22.08;;;256.40;2252.80;;;;;;5050917;28;20495;-62
2023/04/11 03:28:53;;;;;;;43.60;25.83;;;256.30;2252.80;;;;;;5050278;28;20030;-63
2023/04/11 03:31:19;;;;;;;25.73;20.55;;;256.30;2252.80;;;;;;5050701;28;20076;-62
2023/04/11 03:33:45;;;;;;;30.60;19.90;;;256.30;2252.80;;;;;;5036897;28;20045;-62
2023/04/11 03:36:11;;;;;;;38.13;23.80;;;256.30;2252.80;;;;;;5050643;28;20067;-62
2023/04/11 03:38:37;;;;;;;27.63;18.05;;;256.40;2252.80;;;;;;5050253;28;20060;-63
2023/04/11 03:41:03;;;;;;;35.08;20.77;;;256.40;2252.80;;;;;;5050634;28;20048;-62
2023/04/11 03:43:28;;;;;;;28.35;20.58;;;256.40;2252.80;;;;;;5050071;28;20024;-62
2023/04/11 03:45:54;;;;;;;25.98;17.48;;;256.40;2252.80;;;;;;5050563;28;20467;-64
2023/04/11 03:48:20;;;;;;;25.83;17.70;;;256.50;2252.80;;;;;;5049640;28;20033;-62
2023/04/11 03:50:45;;;;;;;24.30;17.67;;;256.50;2252.80;;;;;;5050688;28;20053;-62
2023/04/11 03:53:11;;;;;;;25.05;17.25;;;256.60;2252.80;;;;;;5049754;28;20029;-62
2023/04/11 03:55:37;;;;;;;25.80;17.02;;;256.60;2252.80;;;;;;5050533;28;20017;-62
2023/04/11 03:58:03;;;;;;;26.20;17.63;;;256.60;2252.80;;;;;;5049794;28;20025;-61
2023/04/11 04:00:28;;;;;;;24.00;18.30;;;256.60;2252.80;;;;;;5050161;28;20024;-61
2023/04/11 04:02:54;;;;;;;20.65;15.20;;;256.60;2252.80;;;;;;5049347;28;20563;-62
2023/04/11 04:05:20;;;;;;;27.58;19.40;;;256.70;2252.80;;;;;;5049759;28;20379;-60
2023/04/11 04:07:46;;;;;;;21.88;16.52;;;256.60;2252.80;;;;;;5050077;28;20128;-60
2023/04/11 04:10:11;;;;;;;25.45;16.52;;;256.70;2252.80;;;;;;5049585;28;20021;-62
2023/04/11 04:12:38;;;;;;;23.45;16.73;;;256.70;2252.80;;;;;;5049905;28;20024;-64
2023/04/11 04:15:04;;;;;;;25.38;16.85;;;256.80;2252.80;;;;;;5050169;28;20078;-63
2023/04/11 04:17:30;;;;;;;25.17;16.30;;;256.90;2252.80;;;;;;5036228;28;20099;-62
2023/04/11 04:19:56;;;;;;;25.73;16.85;;;256.90;2252.80;;;;;;5049993;28;20391;-61
2023/04/11 04:22:22;;;;;;;20.10;14.43;;;256.90;2252.80;;;;;;5049850;28;20070;-61
2023/04/11 04:24:48;;;;;;;22.27;15.82;;;256.90;2252.80;;;;;;5049469;28;20079;-61
2023/04/11 04:27:17;;;;;;;24.73;17.27;;;281.60;2278.40;;;;;;5049393;28;20052;-61
2023/04/11 04:29:46;;;;;;;22.67;15.95;;;281.60;2278.40;;;;;;5050080;28;20458;-61
2023/04/11 04:32:13;;;;;;;23.25;15.15;;;281.70;2278.40;;;;;;5049169;28;20035;-61
2023/04/11 04:34:48;;;;;;;22.38;16.17;;;281.70;2278.40;;;;;;5049611;28;20104;-60
2023/04/11 04:37:20;;;;;;;25.60;16.60;;;281.70;2278.40;;;;;;5049383;28;20037;-61
2023/04/11 04:39:53;;;;;;;21.70;15.88;;;281.80;2278.40;;;;;;5049330;28;20446;-61
2023/04/11 04:42:22;;;;;;;19.42;13.93;;;281.70;2278.40;;;;;;5032725;28;20037;-61
2023/04/11 04:44:49;;;;;;;24.23;14.90;;;281.70;2278.40;;;;;;5038716;28;20017;-61
2023/04/11 04:47:16;;;;;;;20.42;14.95;;;281.80;2278.40;;;;;;5042342;28;20040;-60
2023/04/11 04:49:43;;;;;;;20.05;16.48;;;281.70;2278.40;;;;;;5047478;28;20463;-60
2023/04/11 04:52:08;;;;;;;22.67;16.70;;;281.80;2278.40;;;;;;5033306;28;20036;-65
2023/04/11 04:54:34;;;;;;;38.15;24.58;;;281.80;2278.40;;;;;;5049164;28;20024;-63
2023/04/11 04:57:00;;;;;;;26.92;20.40;;;281.70;2278.40;;;;;;5048594;28;20044;-61
2023/04/11 04:59:26;;;;;;;23.52;18.75;;;281.80;2278.40;;;;;;5048946;28;20036;-61
2023/04/11 05:01:53;;;;;;;28.42;21.60;;;281.80;2278.40;;;;;;5049181;28;20025;-60
2023/04/11 05:04:19;;;;;;;28.63;21.35;;;281.80;2278.40;;;;;;5049031;28;20025;-60
2023/04/11 05:06:45;;;;;;;26.48;18.92;;;281.80;2278.40;;;;;;5048424;28;20387;-61
2023/04/11 05:09:11;;;;;;;27.10;21.00;;;281.90;2278.40;;;;;;5049049;28;20017;-60
2023/04/11 05:11:37;;;;;;;24.40;16.85;;;282.00;2278.40;;;;;;5048728;28;20039;-60
2023/04/11 05:14:02;;;;;;;29.05;21.25;;;282.00;2278.40;;;;;;5048297;28;20088;-60
2023/04/11 05:16:28;;;;;;;29.23;19.25;;;282.10;2278.40;;;;;;5048340;28;20033;-61
2023/04/11 05:18:54;;;;;;;28.17;20.52;;;282.00;2278.40;;;;;;5049167;28;20524;-61
2023/04/11 05:21:21;;;;;;;25.10;16.90;;;282.00;2278.40;;;;;;5048801;28;20021;-61
2023/04/11 05:23:47;;;;;;;20.70;17.02;;;282.00;2278.40;;;;;;5048912;28;20037;-60
2023/04/11 05:26:13;;;;;;;24.42;18.17;;;282.00;2278.40;;;;;;5048740;28;20041;-62
2023/04/11 05:28:38;;;;;;;24.80;17.75;;;281.90;2278.40;;;;;;5048545;28;20535;-62
2023/04/11 05:31:05;;;;;;;22.33;16.35;;;281.90;2278.40;;;;;;5048889;28;20467;-61
2023/04/11 05:33:31;;;;;;;25.77;18.52;;;282.00;2278.40;;;;;;5048435;28;20036;-61
2023/04/11 05:35:56;;;;;;;21.52;16.00;;;282.00;2278.40;;;;;;5038090;28;20453;-61
2023/04/11 05:38:22;;;;;;;25.30;18.02;;;282.20;2278.40;;;;;;5024795;28;20022;-60
2023/04/11 05:40:48;;;;;;;25.20;19.42;;;282.20;2278.40;;;;;;5046165;28;20044;-62
2023/04/11 05:43:14;;;;;;;25.27;18.17;;;282.20;2278.40;;;;;;5048738;28;20048;-61
2023/04/11 05:45:40;;;;;;;22.88;16.05;;;282.30;2278.40;;;;;;5036239;28;20036;-62
2023/04/11 05:48:07;;;;;;;22.85;17.50;;;282.40;2278.40;;;;;;5044970;28;20091;-61
2023/04/11 05:50:33;;;;;;;32.30;21.98;;;282.40;2278.40;;;;;;5032153;28;20058;-63
2023/04/11 05:52:59;;;;;;;32.05;21.35;;;307.20;2304.00;;;;;;5028723;28;20057;-61
2023/04/11 05:55:25;;;;;;;38.63;26.95;;;307.20;2304.00;;;;;;5029710;28;20491;-62
2023/04/11 05:57:50;;;;;;;32.60;23.25;;;282.50;2278.40;;;;;;5047479;28;20079;-61
2023/04/11 06:00:17;;;;;;;23.02;18.75;;;282.50;2278.40;;;;;;5048028;28;20060;-62
2023/04/11 06:02:43;;;;;;;28.73;21.55;;;282.50;2278.40;;;;;;5048293;28;20035;-61
2023/04/11 06:05:10;;;;;;;24.70;17.92;;;282.50;2278.40;;;;;;5047934;28;20029;-62
2023/04/11 06:07:38;;;;;;;103.05;56.28;;;282.50;2278.40;;;;;;5048841;28;20033;-62
2023/04/11 06:10:07;;;;;;;47.90;30.52;;;282.50;2278.40;;;;;;5048758;28;20096;-62
2023/04/11 06:12:33;;;;;;;229.68;118.28;;;307.20;2304.00;;;;;;5048107;28;20043;-61
2023/04/11 06:14:59;;;;;;;30.92;21.92;;;282.50;2278.40;;;;;;5047749;28;20096;-60
2023/04/11 06:17:25;;;;;;;39.65;26.77;;;282.50;2278.40;;;;;;5048545;28;20036;-64
2023/04/11 06:19:50;;;;;;;24.90;18.20;;;282.50;2278.40;;;;;;5048243;28;20021;-63
2023/04/11 06:22:16;;;;;;;31.75;26.20;;;307.20;2304.00;;;;;;5048607;28;20036;-63
2023/04/11 06:24:44;;;;;;;50.55;43.92;;;307.30;2304.00;;;;;;5048297;28;20021;-63
2023/04/11 06:27:09;;;;;;;28.90;22.38;;;307.30;2304.00;;;;;;5051416;28;20045;-64
2023/04/11 06:29:39;;;;;;;28.83;21.20;;;307.30;2304.00;;;;;;5051624;28;20020;-64
2023/04/11 06:32:06;;;;;;;45.75;36.15;;;307.30;2304.00;;;;;;5052227;28;20029;-64
2023/04/11 06:34:33;;;;;;;24.13;18.90;;;307.40;2304.00;;;;;;5051799;28;20352;-64
2023/04/11 06:36:58;;;;;;;26.58;21.73;;;307.50;2304.00;;;;;;5051589;28;20029;-64
2023/04/11 06:39:25;;;;;;;24.48;16.80;;;307.60;2304.00;;;;;;5051838;28;20052;-63
2023/04/11 06:41:50;;;;;;;21.30;17.33;;;307.70;2304.00;;;;;;5051075;28;20031;-64
2023/04/11 06:44:16;;;;;;;25.92;19.73;;;307.90;2304.00;;;;;;5051610;28;20119;-64
2023/04/11 06:46:42;;;;;;;26.52;19.02;;;308.00;2304.00;;;;;;5051242;28;20037;-63
2023/04/11 06:49:08;;;;;;;33.72;23.17;;;332.80;2329.60;;;;;;5050893;28;20028;-65
2023/04/11 06:51:35;;;;;;;26.45;21.17;;;332.90;2329.60;;;;;;5051759;28;20028;-63
2023/04/11 06:54:01;;;;;;;31.10;23.42;;;332.90;2329.60;;;;;;5051456;28;20032;-70
2023/04/11 06:56:27;;;;;;;44.17;33.63;;;333.10;2329.60;;;;;;5050995;28;20039;-68
2023/04/11 06:58:53;;;;;;;30.80;25.02;;;333.20;2329.60;;;;;;5051055;28;20029;-70
2023/04/11 07:01:24;;;;;;;40.65;32.83;;;333.10;2329.60;;;;;;5050335;28;20561;-70
2023/04/11 07:03:52;;;;;;;30.35;20.83;;;333.00;2329.60;;;;;;5050855;28;20379;-68
2023/04/11 07:06:21;;;;;;;26.70;19.40;;;308.10;2304.00;;;;;;5050312;28;20532;-68
2023/04/11 07:08:47;;;;;;;22.30;16.75;;;332.80;2329.60;;;;;;5050872;28;20801;-68
2023/04/11 07:11:13;;;;;;;25.02;18.02;;;308.00;2304.00;;;;;;5050924;28;20037;-68
2023/04/11 07:13:38;;;;;;;25.50;20.20;;;308.10;2304.00;;;;;;5050330;28;20021;-69
2023/04/11 07:16:04;;;;;;;25.88;19.38;;;308.10;2304.00;;;;;;5050902;28;20390;-69
2023/04/11 07:18:30;;;;;;;27.83;21.13;;;308.00;2304.00;;;;;;5050487;28;20071;-68
2023/04/11 07:20:56;;;;;;;28.50;17.63;;;332.80;2329.60;;;;;;5050354;28;20486;-69
2023/04/11 07:23:22;;;;;;;24.58;15.52;;;332.90;2329.60;;;;;;5040436;28;20160;-71
2023/04/11 07:25:48;;;;;;;27.85;19.25;;;333.00;2329.60;;;;;;5045784;28;20021;-69
2023/04/11 07:28:14;;;;;;;28.27;19.88;;;333.20;2329.60;;;;;;5050068;28;20043;-70
2023/04/11 07:30:40;;;;;;;21.52;16.63;;;333.30;2329.60;;;;;;5043485;28;20036;-69
2023/04/11 07:33:06;;;;;;;21.05;16.20;;;333.60;2329.60;;;;;;5030425;28;20436;-69
2023/04/11 07:35:33;;;;;;;25.48;16.85;;;358.40;2304.00;;;;;;5032055;28;20396;-70
2023/04/11 07:38:00;;;;;;;27.65;20.02;;;358.90;2304.00;;;;;;5035515;28;20029;-70
2023/04/11 07:40:29;;;;;;;77.18;52.67;;;384.00;2176.00;;;;;;5049649;28;20495;-70
2023/04/11 07:42:54;;;;;;;26.20;17.20;;;384.50;2099.20;;;;;;5049770;28;20017;-69
2023/04/11 07:45:20;;;;;;;35.50;25.38;;;410.00;2073.60;;;;;;5049428;28;20027;-69
2023/04/11 07:47:47;;;;;;;27.75;20.50;;;410.20;2022.40;;;;;;5049780;28;20028;-69
2023/04/11 07:50:12;;;;;;;23.20;17.27;;;410.40;1996.80;;;;;;5050136;28;20483;-70
2023/04/11 07:52:38;;;;;;;74.78;55.30;;;487.20;1792.00;;;;;;5032213;28;20053;-70
2023/04/11 07:55:04;;;;;;;88.80;70.80;;;563.40;1638.40;;;;;;5046430;28;20056;-69
2023/04/11 07:57:30;;;;;;;20.52;18.42;;;589.40;1510.40;;;;;;5049981;28;20374;-71
2023/04/11 07:59:59;;;;;;;33.92;30.30;;;640.10;1433.60;;;;;;5050132;28;20125;-70
2023/04/11 08:02:25;;;;;;;23.48;21.02;;;665.90;1382.40;;;;;;5050451;28;20061;-71
2023/04/11 08:04:51;;;;;;;21.20;19.10;;;665.70;1331.20;;;;;;5049873;28;20509;-70
2023/04/11 08:07:16;;;;;;;27.85;25.02;;;691.20;1305.60;;;;;;5050265;28;20044;-70
2023/04/11 08:09:42;;;;;;;25.15;22.70;;;691.60;1280.00;;;;;;5038021;28;20472;-70
2023/04/11 08:12:09;;;;;;;23.20;21.08;;;716.80;1305.60;;;;;;5047866;28;20076;-70
2023/04/11 08:14:35;;;;;;;36.17;31.42;;;691.50;1280.00;;;;;;5049794;28;20155;-70
2023/04/11 08:17:02;;;;;;;28.00;25.00;;;640.20;1331.20;;;;;;5049570;28;20467;-71
2023/04/11 08:19:27;;;;;;;44.05;38.35;;;615.30;1356.80;;;;;;5041235;28;20071;-71
2023/04/11 08:21:53;;;;;;;30.27;27.02;;;589.20;1433.60;;;;;;5049180;28;20060;-70
2023/04/11 08:24:19;;;;;;;31.15;27.85;;;564.10;1484.80;;;;;;5048757;28;20067;-70
2023/04/11 08:26:45;;;;;;;18.95;16.50;;;589.50;1433.60;;;;;;5044794;28;20034;-70
2023/04/11 08:29:11;;;;;;;19.65;17.52;;;588.80;1484.80;;;;;;5039532;28;20082;-69
2023/04/11 08:31:44;;;;;;;20.70;18.60;;;563.20;1561.60;;;;;;5035422;28;20028;-70
2023/04/11 08:34:11;;;;;;;54.38;39.97;;;512.60;1587.20;;;;;;5036891;28;20167;-70
2023/04/11 08:36:37;;;;;;;31.83;23.60;;;512.00;1612.80;;;;;;5047327;28;20033;-70
2023/04/11 08:39:02;;;;;;;26.45;19.80;;;486.90;1638.40;;;;;;5048690;28;20399;-69
2023/04/11 08:41:31;;;;;;;24.20;18.58;;;486.60;1689.60;;;;;;5048794;28;20108;-69
2023/04/11 08:43:57;;;;;;;22.38;18.05;;;486.40;1664.00;;;;;;5048006;28;20025;-69
2023/04/11 08:46:23;;;;;;;23.00;19.10;;;486.60;1664.00;;;;;;5048747;28;20023;-69
2023/04/11 08:48:50;;;;;;;19.27;15.30;;;487.10;1612.80;;;;;;5048336;28;20033;-69
2023/04/11 08:51:24;;;;;;;20.77;16.45;;;487.10;1664.00;;;;;;5048789;28;20021;-69
2023/04/11 08:53:56;;;;;;;20.17;16.38;;;487.00;1638.40;;;;;;5048353;28;20021;-68
2023/04/11 08:56:22;;;;;;;18.33;16.27;;;487.10;1638.40;;;;;;5048401;28;20036;-69
2023/04/11 08:58:47;;;;;;;19.35;16.83;;;487.20;1638.40;;;;;;5048159;28;20258;-69
2023/04/11 09:01:33;;;;;;;23.92;19.42;;;487.30;1638.40;;;;;;5034601;28;20033;-69
2023/04/11 09:04:04;;;;;;;24.48;20.67;;;486.80;1612.80;;;;;;5048512;28;20078;-68
2023/04/11 09:06:31;;;;;;;19.75;16.63;;;486.70;1638.40;;;;;;5049104;28;20025;-69
2023/04/11 09:09:04;;;;;;;21.88;17.25;;;486.50;1638.40;;;;;;5049312;28;20137;-68
2023/04/11 09:11:29;;;;;;;19.35;16.58;;;486.50;1689.60;;;;;;5048572;28;20386;-68
2023/04/11 09:14:09;;;;;;;19.92;16.05;;;487.00;1664.00;;;;;;5049164;28;20033;-68
2023/04/11 09:16:36;;;;;;;18.08;15.30;;;487.00;1664.00;;;;;;5049579;28;20021;-68
2023/04/11 09:19:02;;;;;;;25.20;19.23;;;487.10;1664.00;;;;;;5049318;28;20370;-70
2023/04/11 09:21:28;;;;;;;30.23;22.88;;;487.30;1612.80;;;;;;5049269;28;20021;-70
2023/04/11 09:24:12;;;;;;;26.52;22.67;;;512.20;1587.20;;;;;;5049023;28;20025;-69
2023/04/11 09:26:38;;;;;;;18.85;15.90;;;512.40;1638.40;;;;;;5048901;28;20021;-71
2023/04/11 09:29:03;;;;;;;17.00;15.20;;;512.30;1612.80;;;;;;5048910;28;20039;-69
2023/04/11 09:31:47;;;;;;;27.45;22.13;;;512.20;1612.80;;;;;;5048841;28;20111;-70
2023/04/11 09:34:22;;;;;;;;;;;512.30;1638.40;;;;;;5049245;28;20613;-70
2023/04/11 09:36:54;;;;;;;58.42;52.47;;;512.00;1612.80;;;;;;5048362;28;20341;-70
2023/04/11 09:39:20;;;;;;;42.35;35.17;;;486.90;1638.40;;;;;;5048441;28;20045;-70
2023/04/11 09:41:46;;;;;;;24.55;19.83;;;487.10;1612.80;;;;;;5048905;28;20474;-71
2023/04/11 09:44:12;;;;;;;20.95;17.60;;;512.00;1612.80;;;;;;5022004;28;20128;-70
2023/04/11 09:46:58;;;;;;;14.40;12.65;;;486.80;1664.00;;;;;;5048573;28;20036;-71
2023/04/11 09:49:23;;;;;;;19.50;14.43;;;486.80;1638.40;;;;;;5027517;28;20025;-70
2023/04/11 09:51:51;;;;;;;22.00;17.90;;;486.80;1638.40;;;;;;5047596;28;21514;-70
2023/04/11 09:54:20;;;;;;;29.65;22.70;;;486.70;1689.60;;;;;;5048097;28;20036;-69
2023/04/11 09:56:46;;;;;;;18.83;15.48;;;487.10;1638.40;;;;;;5048304;28;20477;-70
2023/04/11 09:59:13;;;;;;;17.23;14.40;;;487.30;1638.40;;;;;;5048188;28;20109;-70
2023/04/11 10:01:40;;;;;;;18.52;16.60;;;487.10;1638.40;;;;;;5048902;28;20045;-70
2023/04/11 10:04:06;;;;;;;17.45;15.70;;;487.00;1638.40;;;;;;5041226;28;20025;-71
2023/04/11 10:07:00;;;;;;;17.48;14.55;;;486.50;1664.00;;;;;;5050617;28;20766;-70
2023/04/11 10:09:27;;;;;;;36.17;29.85;;;461.30;1715.20;;;;;;5049386;28;20112;-71
2023/04/11 10:11:53;;;;;;;19.08;15.20;;;460.80;1740.80;;;;;;5038172;28;20025;-70
2023/04/11 10:14:37;;;;;;;20.30;14.75;;;436.10;1740.80;;;;;;5034517;28;20029;-70
2023/04/11 10:17:19;;;;;;;20.33;16.98;;;435.90;1766.40;;;;;;5036379;28;20036;-70
2023/04/11 10:19:46;;;;;;;19.13;15.48;;;435.80;1766.40;;;;;;5037717;28;20036;-70
2023/04/11 10:22:40;;;;;;;42.05;31.13;;;436.00;1766.40;;;;;;5050585;28;20023;-70
2023/04/11 10:25:25;;;;;;;22.67;18.63;;;461.20;1740.80;;;;;;5050383;28;20021;-70
2023/04/11 10:28:05;;;;;;;21.50;16.67;;;461.70;1740.80;;;;;;5049871;28;20479;-70
2023/04/11 10:30:40;;;;;;;29.17;22.70;;;486.70;1689.60;;;;;;5049914;28;20024;-70
2023/04/11 10:33:13;;;;;;;29.42;24.23;;;486.80;1689.60;;;;;;5050200;28;20024;-70
2023/04/11 10:35:58;;;;;;;22.52;19.65;;;486.80;1638.40;;;;;;5050392;28;20037;-71
2023/04/11 10:38:39;;;;;;;22.30;17.30;;;486.40;1664.00;;;;;;5050371;28;20036;-69
2023/04/11 10:41:21;;;;;;;19.25;16.13;;;461.20;1715.20;;;;;;5050515;28;20044;-70
2023/04/11 10:43:48;;;;;;;21.75;17.00;;;460.90;1740.80;;;;;;5048842;28;20547;-70
2023/04/11 10:46:21;;;;;;;20.73;16.45;;;460.80;1766.40;;;;;;5050418;28;20033;-69
2023/04/11 10:49:00;;;;;;;19.30;16.60;;;461.30;1740.80;;;;;;5050066;28;20025;-70
2023/04/11 10:51:28;;;;;;;23.65;17.92;;;486.60;1740.80;;;;;;5050051;28;20041;-70
2023/04/11 10:53:58;;;;;;;22.30;18.00;;;487.00;1664.00;;;;;;5049784;28;20375;-70
2023/04/11 10:56:41;;;;;;;30.98;23.90;;;486.80;1664.00;;;;;;5050416;28;20025;-70
2023/04/11 10:59:30;;;;;;;22.50;18.85;;;486.50;1664.00;;;;;;5051452;28;20541;-70
2023/04/11 11:01:57;;;;;;;21.17;16.50;;;461.70;1715.20;;;;;;5051332;28;20040;-70
2023/04/11 11:04:33;;;;;;;16.95;14.45;;;461.50;1715.20;;;;;;5051705;28;20112;-70
2023/04/11 11:07:06;;;;;;;25.40;17.50;;;486.40;1689.60;;;;;;5051133;28;20082;-68
2023/04/11 11:09:32;;;;;;;20.83;15.27;;;486.50;1689.60;;;;;;5050948;28;20021;-70
2023/04/11 11:12:11;;;;;;;17.60;14.93;;;486.50;1715.20;;;;;;5049768;28;20111;-71
2023/04/11 11:14:42;;;;;;;17.00;13.63;;;461.60;1689.60;;;;;;5037739;28;20075;-70
2023/04/11 11:17:10;;;;;;;23.58;17.30;;;461.40;1715.20;;;;;;5050765;28;20029;-70
2023/04/11 11:19:36;;;;;;;17.95;13.32;;;461.20;1715.20;;;;;;5050821;28;20021;-70
2023/04/11 11:22:03;;;;;;;16.75;13.88;;;461.20;1766.40;;;;;;5051090;28;20040;-69
2023/04/11 11:24:29;;;;;;;17.65;13.43;;;461.30;1740.80;;;;;;5050495;28;20013;-70
2023/04/11 11:26:56;;;;;;;15.35;13.10;;;461.50;1740.80;;;;;;5050951;28;20028;-70
2023/04/11 11:29:37;;;;;;;13.52;11.50;;;461.40;1715.20;;;;;;5050721;28;20025;-70
2023/04/11 11:32:03;;;;;;;20.60;15.63;;;461.30;1715.20;;;;;;5050895;28;20025;-70
2023/04/11 11:34:30;;;;;;;13.80;12.35;;;461.40;1740.80;;;;;;5050572;28;20183;-70
2023/04/11 11:37:00;;;;;;;16.73;12.60;;;461.20;1766.40;;;;;;5051005;28;20029;-69
2023/04/11 11:39:29;;;;;;;15.52;12.48;;;461.40;1766.40;;;;;;5050615;28;20044;-70
2023/04/11 11:41:55;;;;;;;15.35;11.10;;;461.60;1715.20;;;;;;5050624;28;20376;-70
2023/04/11 11:44:22;;;;;;;18.65;15.90;;;461.70;1689.60;;;;;;5050353;28;20028;-70
2023/04/11 11:47:03;;;;;;;16.02;12.80;;;461.70;1689.60;;;;;;5049980;28;20882;-71
2023/04/11 11:49:53;;;;;;;15.32;10.93;;;461.70;1689.60;;;;;;5044926;28;20031;-70
2023/04/11 11:52:35;;;;;;;18.27;12.90;;;486.60;1715.20;;;;;;5030623;28;20029;-70
2023/04/11 11:55:08;;;;;;;15.80;11.93;;;486.70;1715.20;;;;;;5030395;28;20098;-69
2023/04/11 11:57:35;;;;;;;24.50;14.18;;;486.80;1664.00;;;;;;5030668;28;20113;-70
2023/04/11 12:00:08;;;;;;;17.23;13.48;;;486.90;1689.60;;;;;;5030600;28;20026;-69
2023/04/11 12:02:35;;;;;;;13.55;11.23;;;487.00;1664.00;;;;;;5030666;28;20040;-70